sensor_id;sensor_type;location;lat;lon;timestamp;temperature;humidity
4910;DHT22;2470;49.868;8.660;2022-08-14T00:00:33;24.80;55.30
4910;DHT22;2470;49.868;8.660;2022-08-14T00:02:59;24.80;55.40
4910;DHT22;2470;49.868;8.660;2022-08-14T00:05:24;24.70;55.40
4910;DHT22;2470;49.868;8.660;2022-08-14T00:07:50;24.70;55.60
4910;DHT22;2470;49.868;8.660;2022-08-14T00:10:19;24.70;55.70
4910;DHT22;2470;49.868;8.660;2022-08-14T00:12:49;24.60;55.80
4910;DHT22;2470;49.868;8.660;2022-08-14T00:15:22;24.60;55.90
4910;DHT22;2470;49.868;8.660;2022-08-14T00:17:49;24.60;56.10
4910;DHT22;2470;49.868;8.660;2022-08-14T00:20:16;24.60;56.20
4910;DHT22;2470;49.868;8.660;2022-08-14T00:22:42;24.60;56.40
4910;DHT22;2470;49.868;8.660;2022-08-14T00:25:08;24.50;56.40
4910;DHT22;2470;49.868;8.660;2022-08-14T00:27:34;24.50;56.50
4910;DHT22;2470;49.868;8.660;2022-08-14T00:29:59;24.50;56.70
4910;DHT22;2470;49.868;8.660;2022-08-14T00:32:25;24.50;56.80
4910;DHT22;2470;49.868;8.660;2022-08-14T00:34:50;24.50;57.00
4910;DHT22;2470;49.868;8.660;2022-08-14T00:37:16;24.50;57.10
4910;DHT22;2470;49.868;8.660;2022-08-14T00:39:41;24.40;57.10
4910;DHT22;2470;49.868;8.660;2022-08-14T00:42:07;24.40;57.20
4910;DHT22;2470;49.868;8.660;2022-08-14T00:44:33;24.40;57.40
4910;DHT22;2470;49.868;8.660;2022-08-14T00:47:02;24.40;57.40
4910;DHT22;2470;49.868;8.660;2022-08-14T00:49:30;24.40;57.50
4910;DHT22;2470;49.868;8.660;2022-08-14T00:51:56;24.40;57.70
4910;DHT22;2470;49.868;8.660;2022-08-14T00:54:24;24.40;57.80
4910;DHT22;2470;49.868;8.660;2022-08-14T00:56:51;24.30;58.00
4910;DHT22;2470;49.868;8.660;2022-08-14T00:59:16;24.30;58.10
4910;DHT22;2470;49.868;8.660;2022-08-14T01:01:43;24.30;58.30
4910;DHT22;2470;49.868;8.660;2022-08-14T01:04:10;24.30;58.40
4910;DHT22;2470;49.868;8.660;2022-08-14T01:06:36;24.30;58.60
4910;DHT22;2470;49.868;8.660;2022-08-14T01:09:02;24.20;58.80
4910;DHT22;2470;49.868;8.660;2022-08-14T01:11:28;24.20;59.00
4910;DHT22;2470;49.868;8.660;2022-08-14T01:13:55;24.20;59.00
4910;DHT22;2470;49.868;8.660;2022-08-14T01:16:25;24.20;59.10
4910;DHT22;2470;49.868;8.660;2022-08-14T01:18:51;24.20;59.30
4910;DHT22;2470;49.868;8.660;2022-08-14T01:21:39;24.20;59.40
4910;DHT22;2470;49.868;8.660;2022-08-14T01:24:06;24.10;59.90
4910;DHT22;2470;49.868;8.660;2022-08-14T01:26:33;24.20;59.50
4910;DHT22;2470;49.868;8.660;2022-08-14T01:29:00;24.10;59.40
4910;DHT22;2470;49.868;8.660;2022-08-14T01:31:29;24.10;59.50
4910;DHT22;2470;49.868;8.660;2022-08-14T01:34:00;24.10;59.70
4910;DHT22;2470;49.868;8.660;2022-08-14T01:36:27;24.00;59.70
4910;DHT22;2470;49.868;8.660;2022-08-14T01:38:55;24.00;59.90
4910;DHT22;2470;49.868;8.660;2022-08-14T01:41:25;24.00;60.00
4910;DHT22;2470;49.868;8.660;2022-08-14T01:43:57;23.90;60.10
4910;DHT22;2470;49.868;8.660;2022-08-14T01:46:27;23.90;60.10
4910;DHT22;2470;49.868;8.660;2022-08-14T01:48:53;23.90;60.30
4910;DHT22;2470;49.868;8.660;2022-08-14T01:51:20;23.90;60.30
4910;DHT22;2470;49.868;8.660;2022-08-14T01:53:52;23.90;60.50
4910;DHT22;2470;49.868;8.660;2022-08-14T01:56:19;23.80;60.60
4910;DHT22;2470;49.868;8.660;2022-08-14T01:58:46;23.80;60.60
4910;DHT22;2470;49.868;8.660;2022-08-14T02:01:18;23.80;60.80
4910;DHT22;2470;49.868;8.660;2022-08-14T02:03:45;23.80;60.90
4910;DHT22;2470;49.868;8.660;2022-08-14T02:06:12;23.70;60.90
4910;DHT22;2470;49.868;8.660;2022-08-14T02:08:39;23.70;61.10
4910;DHT22;2470;49.868;8.660;2022-08-14T02:11:07;23.70;61.10
4910;DHT22;2470;49.868;8.660;2022-08-14T02:14:01;23.70;61.90
4910;DHT22;2470;49.868;8.660;2022-08-14T02:16:30;23.70;61.30
4910;DHT22;2470;49.868;8.660;2022-08-14T02:18:59;23.70;61.40
4910;DHT22;2470;49.868;8.660;2022-08-14T02:21:27;23.60;61.40
4910;DHT22;2470;49.868;8.660;2022-08-14T02:23:53;23.60;61.50
4910;DHT22;2470;49.868;8.660;2022-08-14T02:26:22;23.60;61.60
4910;DHT22;2470;49.868;8.660;2022-08-14T02:28:51;23.60;61.70
4910;DHT22;2470;49.868;8.660;2022-08-14T02:31:17;23.60;61.90
4910;DHT22;2470;49.868;8.660;2022-08-14T02:33:44;23.60;62.00
4910;DHT22;2470;49.868;8.660;2022-08-14T02:36:10;23.50;62.10
4910;DHT22;2470;49.868;8.660;2022-08-14T02:38:37;23.50;62.30
4910;DHT22;2470;49.868;8.660;2022-08-14T02:41:04;23.50;62.50
4910;DHT22;2470;49.868;8.660;2022-08-14T02:43:33;23.40;62.50
4910;DHT22;2470;49.868;8.660;2022-08-14T02:45:58;23.50;62.90
4910;DHT22;2470;49.868;8.660;2022-08-14T02:48:24;23.40;62.90
4910;DHT22;2470;49.868;8.660;2022-08-14T02:50:55;23.40;63.00
4910;DHT22;2470;49.868;8.660;2022-08-14T02:53:21;23.40;63.00
4910;DHT22;2470;49.868;8.660;2022-08-14T02:55:47;23.40;63.20
4910;DHT22;2470;49.868;8.660;2022-08-14T02:58:12;23.40;63.20
4910;DHT22;2470;49.868;8.660;2022-08-14T03:00:38;23.30;63.20
4910;DHT22;2470;49.868;8.660;2022-08-14T03:03:04;23.30;63.30
4910;DHT22;2470;49.868;8.660;2022-08-14T03:05:29;23.30;63.50
4910;DHT22;2470;49.868;8.660;2022-08-14T03:08:14;23.20;63.50
4910;DHT22;2470;49.868;8.660;2022-08-14T03:10:39;23.20;63.70
4910;DHT22;2470;49.868;8.660;2022-08-14T03:13:05;23.20;63.80
4910;DHT22;2470;49.868;8.660;2022-08-14T03:15:32;23.20;64.10
4910;DHT22;2470;49.868;8.660;2022-08-14T03:18:09;23.10;64.20
4910;DHT22;2470;49.868;8.660;2022-08-14T03:20:35;23.10;64.60
4910;DHT22;2470;49.868;8.660;2022-08-14T03:23:01;23.00;64.70
4910;DHT22;2470;49.868;8.660;2022-08-14T03:25:27;23.00;64.80
4910;DHT22;2470;49.868;8.660;2022-08-14T03:27:55;23.00;65.10
4910;DHT22;2470;49.868;8.660;2022-08-14T03:30:21;22.90;65.30
4910;DHT22;2470;49.868;8.660;2022-08-14T03:32:46;22.90;65.60
4910;DHT22;2470;49.868;8.660;2022-08-14T03:35:12;22.80;65.80
4910;DHT22;2470;49.868;8.660;2022-08-14T03:37:37;22.80;66.10
4910;DHT22;2470;49.868;8.660;2022-08-14T03:40:04;22.80;66.30
4910;DHT22;2470;49.868;8.660;2022-08-14T03:42:30;22.80;66.50
4910;DHT22;2470;49.868;8.660;2022-08-14T03:44:56;22.80;66.40
4910;DHT22;2470;49.868;8.660;2022-08-14T03:47:23;22.80;66.60
4910;DHT22;2470;49.868;8.660;2022-08-14T03:49:49;22.80;66.90
4910;DHT22;2470;49.868;8.660;2022-08-14T03:52:15;22.70;67.10
4910;DHT22;2470;49.868;8.660;2022-08-14T03:54:40;22.70;67.60
4910;DHT22;2470;49.868;8.660;2022-08-14T03:57:06;22.70;67.20
4910;DHT22;2470;49.868;8.660;2022-08-14T03:59:33;22.60;66.90
4910;DHT22;2470;49.868;8.660;2022-08-14T04:01:59;22.70;67.20
4910;DHT22;2470;49.868;8.660;2022-08-14T04:04:31;22.70;67.40
4910;DHT22;2470;49.868;8.660;2022-08-14T04:06:57;22.70;67.90
4910;DHT22;2470;49.868;8.660;2022-08-14T04:09:24;22.70;68.00
4910;DHT22;2470;49.868;8.660;2022-08-14T04:11:49;22.60;68.40
4910;DHT22;2470;49.868;8.660;2022-08-14T04:14:15;22.60;69.10
4910;DHT22;2470;49.868;8.660;2022-08-14T04:16:40;22.50;69.60
4910;DHT22;2470;49.868;8.660;2022-08-14T04:19:12;22.40;70.00
4910;DHT22;2470;49.868;8.660;2022-08-14T04:21:39;22.40;70.70
4910;DHT22;2470;49.868;8.660;2022-08-14T04:24:04;22.30;71.20
4910;DHT22;2470;49.868;8.660;2022-08-14T04:26:30;22.30;71.60
4910;DHT22;2470;49.868;8.660;2022-08-14T04:28:56;22.30;71.80
4910;DHT22;2470;49.868;8.660;2022-08-14T04:31:23;22.40;72.30
4910;DHT22;2470;49.868;8.660;2022-08-14T04:33:49;22.40;71.50
4910;DHT22;2470;49.868;8.660;2022-08-14T04:36:18;22.50;71.50
4910;DHT22;2470;49.868;8.660;2022-08-14T04:38:43;22.50;71.60
4910;DHT22;2470;49.868;8.660;2022-08-14T04:41:27;22.50;72.00
4910;DHT22;2470;49.868;8.660;2022-08-14T04:44:11;22.60;72.20
4910;DHT22;2470;49.868;8.660;2022-08-14T04:46:37;22.60;72.00
4910;DHT22;2470;49.868;8.660;2022-08-14T04:49:04;22.70;71.80
4910;DHT22;2470;49.868;8.660;2022-08-14T04:51:29;22.70;71.70
4910;DHT22;2470;49.868;8.660;2022-08-14T04:53:57;22.80;71.70
4910;DHT22;2470;49.868;8.660;2022-08-14T04:56:24;22.90;71.70
4910;DHT22;2470;49.868;8.660;2022-08-14T04:58:53;22.90;71.50
4910;DHT22;2470;49.868;8.660;2022-08-14T05:01:23;23.00;71.40
4910;DHT22;2470;49.868;8.660;2022-08-14T05:03:49;23.00;71.40
4910;DHT22;2470;49.868;8.660;2022-08-14T05:06:15;23.00;71.50
4910;DHT22;2470;49.868;8.660;2022-08-14T05:08:41;23.00;71.70
4910;DHT22;2470;49.868;8.660;2022-08-14T05:11:08;23.00;71.70
4910;DHT22;2470;49.868;8.660;2022-08-14T05:13:34;23.00;71.80
4910;DHT22;2470;49.868;8.660;2022-08-14T05:16:02;23.10;72.10
4910;DHT22;2470;49.868;8.660;2022-08-14T05:18:30;23.10;72.00
4910;DHT22;2470;49.868;8.660;2022-08-14T05:21:00;23.20;71.90
4910;DHT22;2470;49.868;8.660;2022-08-14T05:23:31;23.30;71.70
4910;DHT22;2470;49.868;8.660;2022-08-14T05:25:58;23.30;71.50
4910;DHT22;2470;49.868;8.660;2022-08-14T05:28:43;23.40;71.40
4910;DHT22;2470;49.868;8.660;2022-08-14T05:31:12;23.40;71.30
4910;DHT22;2470;49.868;8.660;2022-08-14T05:33:38;23.50;71.30
4910;DHT22;2470;49.868;8.660;2022-08-14T05:36:09;23.50;71.00
4910;DHT22;2470;49.868;8.660;2022-08-14T05:38:38;23.60;71.00
4910;DHT22;2470;49.868;8.660;2022-08-14T05:41:13;23.60;71.10
4910;DHT22;2470;49.868;8.660;2022-08-14T05:43:39;23.60;71.40
4910;DHT22;2470;49.868;8.660;2022-08-14T05:46:06;23.60;71.60
4910;DHT22;2470;49.868;8.660;2022-08-14T05:48:32;23.60;71.60
4910;DHT22;2470;49.868;8.660;2022-08-14T05:50:57;23.70;71.70
4910;DHT22;2470;49.868;8.660;2022-08-14T05:53:26;23.70;71.90
4910;DHT22;2470;49.868;8.660;2022-08-14T05:55:52;23.70;71.90
4910;DHT22;2470;49.868;8.660;2022-08-14T05:58:19;23.80;72.00
4910;DHT22;2470;49.868;8.660;2022-08-14T06:00:46;23.80;72.20
4910;DHT22;2470;49.868;8.660;2022-08-14T06:03:17;23.90;72.20
4910;DHT22;2470;49.868;8.660;2022-08-14T06:05:44;24.00;72.40
4910;DHT22;2470;49.868;8.660;2022-08-14T06:10:47;24.00;72.20
4910;DHT22;2470;49.868;8.660;2022-08-14T06:13:13;24.10;72.50
4910;DHT22;2470;49.868;8.660;2022-08-14T06:15:39;24.10;72.70
4910;DHT22;2470;49.868;8.660;2022-08-14T06:18:06;24.10;72.70
4910;DHT22;2470;49.868;8.660;2022-08-14T06:20:32;24.10;72.50
4910;DHT22;2470;49.868;8.660;2022-08-14T06:22:58;24.20;72.10
4910;DHT22;2470;49.868;8.660;2022-08-14T06:25:24;24.20;72.20
4910;DHT22;2470;49.868;8.660;2022-08-14T06:27:50;24.20;72.40
4910;DHT22;2470;49.868;8.660;2022-08-14T06:30:19;24.30;72.60
4910;DHT22;2470;49.868;8.660;2022-08-14T06:32:45;24.30;72.50
4910;DHT22;2470;49.868;8.660;2022-08-14T06:35:12;24.40;72.10
4910;DHT22;2470;49.868;8.660;2022-08-14T06:37:47;24.40;71.80
4910;DHT22;2470;49.868;8.660;2022-08-14T06:40:23;24.50;71.70
4910;DHT22;2470;49.868;8.660;2022-08-14T06:42:49;24.50;71.70
4910;DHT22;2470;49.868;8.660;2022-08-14T06:45:15;24.50;71.70
4910;DHT22;2470;49.868;8.660;2022-08-14T06:47:43;24.50;71.50
4910;DHT22;2470;49.868;8.660;2022-08-14T06:50:12;24.60;71.40
4910;DHT22;2470;49.868;8.660;2022-08-14T06:52:38;24.60;71.60
4910;DHT22;2470;49.868;8.660;2022-08-14T06:55:05;24.60;71.40
4910;DHT22;2470;49.868;8.660;2022-08-14T06:57:50;24.70;71.30
4910;DHT22;2470;49.868;8.660;2022-08-14T07:00:18;24.70;71.30
4910;DHT22;2470;49.868;8.660;2022-08-14T07:02:44;24.80;71.00
4910;DHT22;2470;49.868;8.660;2022-08-14T07:05:28;24.80;70.80
4910;DHT22;2470;49.868;8.660;2022-08-14T07:10:46;24.90;70.50
4910;DHT22;2470;49.868;8.660;2022-08-14T07:13:12;24.90;70.40
4910;DHT22;2470;49.868;8.660;2022-08-14T07:15:40;24.90;70.20
4910;DHT22;2470;49.868;8.660;2022-08-14T07:18:08;25.00;70.30
4910;DHT22;2470;49.868;8.660;2022-08-14T07:20:34;25.10;70.20
4910;DHT22;2470;49.868;8.660;2022-08-14T07:23:04;25.20;69.80
4910;DHT22;2470;49.868;8.660;2022-08-14T07:25:31;25.30;69.70
4910;DHT22;2470;49.868;8.660;2022-08-14T07:27:57;25.20;69.40
4910;DHT22;2470;49.868;8.660;2022-08-14T07:30:23;25.30;69.20
4910;DHT22;2470;49.868;8.660;2022-08-14T07:32:49;25.30;69.10
4910;DHT22;2470;49.868;8.660;2022-08-14T07:35:15;25.30;68.90
4910;DHT22;2470;49.868;8.660;2022-08-14T07:37:40;25.30;68.90
4910;DHT22;2470;49.868;8.660;2022-08-14T07:40:06;25.40;68.60
4910;DHT22;2470;49.868;8.660;2022-08-14T07:42:32;25.40;68.40
4910;DHT22;2470;49.868;8.660;2022-08-14T07:44:59;25.50;68.40
4910;DHT22;2470;49.868;8.660;2022-08-14T07:47:25;25.40;68.20
4910;DHT22;2470;49.868;8.660;2022-08-14T07:49:58;25.50;68.00
4910;DHT22;2470;49.868;8.660;2022-08-14T07:52:25;25.50;67.80
4910;DHT22;2470;49.868;8.660;2022-08-14T07:54:51;25.50;67.90
4910;DHT22;2470;49.868;8.660;2022-08-14T07:57:17;25.60;67.80
4910;DHT22;2470;49.868;8.660;2022-08-14T07:59:42;25.70;67.30
4910;DHT22;2470;49.868;8.660;2022-08-14T08:02:10;25.90;66.90
4910;DHT22;2470;49.868;8.660;2022-08-14T08:04:42;25.90;65.90
4910;DHT22;2470;49.868;8.660;2022-08-14T08:07:09;26.10;64.80
4910;DHT22;2470;49.868;8.660;2022-08-14T08:09:35;26.10;64.60
4910;DHT22;2470;49.868;8.660;2022-08-14T08:12:02;26.20;64.70
4910;DHT22;2470;49.868;8.660;2022-08-14T08:14:29;26.20;64.90
4910;DHT22;2470;49.868;8.660;2022-08-14T08:16:55;26.20;65.10
4910;DHT22;2470;49.868;8.660;2022-08-14T08:19:21;26.30;64.90
4910;DHT22;2470;49.868;8.660;2022-08-14T08:21:47;26.30;64.50
4910;DHT22;2470;49.868;8.660;2022-08-14T08:24:13;26.30;63.90
4910;DHT22;2470;49.868;8.660;2022-08-14T08:26:40;26.40;62.90
4910;DHT22;2470;49.868;8.660;2022-08-14T08:29:06;26.40;62.60
4910;DHT22;2470;49.868;8.660;2022-08-14T08:31:31;26.50;62.30
4910;DHT22;2470;49.868;8.660;2022-08-14T08:33:57;26.50;61.60
4910;DHT22;2470;49.868;8.660;2022-08-14T08:36:22;26.60;61.60
4910;DHT22;2470;49.868;8.660;2022-08-14T08:38:48;26.60;61.10
4910;DHT22;2470;49.868;8.660;2022-08-14T08:41:15;26.70;60.50
4910;DHT22;2470;49.868;8.660;2022-08-14T08:43:40;26.80;60.10
4910;DHT22;2470;49.868;8.660;2022-08-14T08:46:28;26.90;59.80
4910;DHT22;2470;49.868;8.660;2022-08-14T08:48:55;26.90;59.00
4910;DHT22;2470;49.868;8.660;2022-08-14T08:51:35;27.00;58.60
4910;DHT22;2470;49.868;8.660;2022-08-14T08:54:08;27.10;59.00
4910;DHT22;2470;49.868;8.660;2022-08-14T08:59:22;27.20;58.40
4910;DHT22;2470;49.868;8.660;2022-08-14T09:04:18;27.30;58.10
4910;DHT22;2470;49.868;8.660;2022-08-14T09:06:46;27.20;58.20
4910;DHT22;2470;49.868;8.660;2022-08-14T09:09:21;27.30;56.40
4910;DHT22;2470;49.868;8.660;2022-08-14T09:11:47;27.40;55.70
4910;DHT22;2470;49.868;8.660;2022-08-14T09:14:13;27.50;55.50
4910;DHT22;2470;49.868;8.660;2022-08-14T09:16:39;27.50;55.60
4910;DHT22;2470;49.868;8.660;2022-08-14T09:19:05;27.60;55.00
4910;DHT22;2470;49.868;8.660;2022-08-14T09:21:32;27.70;55.20
4910;DHT22;2470;49.868;8.660;2022-08-14T09:23:59;27.70;55.00
4910;DHT22;2470;49.868;8.660;2022-08-14T09:26:25;27.70;54.90
4910;DHT22;2470;49.868;8.660;2022-08-14T09:28:51;27.80;54.50
4910;DHT22;2470;49.868;8.660;2022-08-14T09:31:17;27.80;55.00
4910;DHT22;2470;49.868;8.660;2022-08-14T09:33:54;27.90;54.30
4910;DHT22;2470;49.868;8.660;2022-08-14T09:39:20;27.90;53.70
4910;DHT22;2470;49.868;8.660;2022-08-14T09:47:50;28.00;53.20
4910;DHT22;2470;49.868;8.660;2022-08-14T09:50:30;28.10;52.10
4910;DHT22;2470;49.868;8.660;2022-08-14T09:53:04;28.10;52.20
4910;DHT22;2470;49.868;8.660;2022-08-14T09:55:34;28.10;52.10
4910;DHT22;2470;49.868;8.660;2022-08-14T09:58:12;28.30;51.80
4910;DHT22;2470;49.868;8.660;2022-08-14T10:00:50;28.30;52.00
4910;DHT22;2470;49.868;8.660;2022-08-14T10:03:32;28.50;50.90
4910;DHT22;2470;49.868;8.660;2022-08-14T10:06:09;28.60;50.60
4910;DHT22;2470;49.868;8.660;2022-08-14T10:09:04;28.60;50.10
4910;DHT22;2470;49.868;8.660;2022-08-14T10:11:33;28.70;50.10
4910;DHT22;2470;49.868;8.660;2022-08-14T10:14:19;28.80;50.40
4910;DHT22;2470;49.868;8.660;2022-08-14T10:16:50;28.80;49.90
4910;DHT22;2470;49.868;8.660;2022-08-14T10:19:18;28.90;49.60
4910;DHT22;2470;49.868;8.660;2022-08-14T10:21:57;28.90;49.80
4910;DHT22;2470;49.868;8.660;2022-08-14T10:24:27;28.80;49.30
4910;DHT22;2470;49.868;8.660;2022-08-14T10:26:55;28.90;48.60
4910;DHT22;2470;49.868;8.660;2022-08-14T10:29:31;28.90;48.10
4910;DHT22;2470;49.868;8.660;2022-08-14T10:31:58;29.00;48.30
4910;DHT22;2470;49.868;8.660;2022-08-14T10:34:33;29.00;48.20
4910;DHT22;2470;49.868;8.660;2022-08-14T10:37:11;29.00;48.40
4910;DHT22;2470;49.868;8.660;2022-08-14T10:39:39;29.00;47.40
4910;DHT22;2470;49.868;8.660;2022-08-14T10:42:10;29.10;46.90
4910;DHT22;2470;49.868;8.660;2022-08-14T10:44:38;29.20;46.60
4910;DHT22;2470;49.868;8.660;2022-08-14T10:47:08;29.30;46.70
4910;DHT22;2470;49.868;8.660;2022-08-14T10:49:39;29.40;45.50
4910;DHT22;2470;49.868;8.660;2022-08-14T10:52:19;29.40;45.30
4910;DHT22;2470;49.868;8.660;2022-08-14T10:54:46;29.50;45.90
4910;DHT22;2470;49.868;8.660;2022-08-14T10:57:26;29.60;46.10
4910;DHT22;2470;49.868;8.660;2022-08-14T10:59:54;29.80;44.80
4910;DHT22;2470;49.868;8.660;2022-08-14T11:05:11;30.00;44.70
4910;DHT22;2470;49.868;8.660;2022-08-14T11:10:52;29.90;45.70
4910;DHT22;2470;49.868;8.660;2022-08-14T11:13:23;30.00;44.30
4910;DHT22;2470;49.868;8.660;2022-08-14T11:15:50;30.00;44.40
4910;DHT22;2470;49.868;8.660;2022-08-14T11:18:17;30.20;44.30
4910;DHT22;2470;49.868;8.660;2022-08-14T11:20:52;30.30;44.40
4910;DHT22;2470;49.868;8.660;2022-08-14T11:23:34;30.40;43.70
4910;DHT22;2470;49.868;8.660;2022-08-14T11:26:01;30.40;43.60
4910;DHT22;2470;49.868;8.660;2022-08-14T11:28:32;30.50;43.40
4910;DHT22;2470;49.868;8.660;2022-08-14T11:30:58;30.60;43.30
4910;DHT22;2470;49.868;8.660;2022-08-14T11:33:28;30.60;43.00
4910;DHT22;2470;49.868;8.660;2022-08-14T11:35:56;30.60;43.10
4910;DHT22;2470;49.868;8.660;2022-08-14T11:38:23;30.70;42.00
4910;DHT22;2470;49.868;8.660;2022-08-14T11:40:50;30.80;43.80
4910;DHT22;2470;49.868;8.660;2022-08-14T11:43:15;30.80;43.30
4910;DHT22;2470;49.868;8.660;2022-08-14T11:45:45;30.90;42.80
4910;DHT22;2470;49.868;8.660;2022-08-14T11:50:40;31.00;43.10
4910;DHT22;2470;49.868;8.660;2022-08-14T11:53:06;31.10;42.80
4910;DHT22;2470;49.868;8.660;2022-08-14T11:55:44;31.20;40.50
4910;DHT22;2470;49.868;8.660;2022-08-14T11:58:11;31.30;41.60
4910;DHT22;2470;49.868;8.660;2022-08-14T12:00:48;31.40;41.70
4910;DHT22;2470;49.868;8.660;2022-08-14T12:03:13;31.40;41.50
4910;DHT22;2470;49.868;8.660;2022-08-14T12:05:39;31.40;42.10
4910;DHT22;2470;49.868;8.660;2022-08-14T12:08:07;31.60;40.50
4910;DHT22;2470;49.868;8.660;2022-08-14T12:10:34;31.70;41.20
4910;DHT22;2470;49.868;8.660;2022-08-14T12:13:13;31.80;40.90
4910;DHT22;2470;49.868;8.660;2022-08-14T12:15:40;31.90;40.10
4910;DHT22;2470;49.868;8.660;2022-08-14T12:18:06;32.00;40.50
4910;DHT22;2470;49.868;8.660;2022-08-14T12:20:34;32.00;39.30
4910;DHT22;2470;49.868;8.660;2022-08-14T12:23:05;32.20;39.70
4910;DHT22;2470;49.868;8.660;2022-08-14T12:25:31;32.20;39.10
4910;DHT22;2470;49.868;8.660;2022-08-14T12:28:01;32.40;40.00
4910;DHT22;2470;49.868;8.660;2022-08-14T12:30:36;32.50;37.90
4910;DHT22;2470;49.868;8.660;2022-08-14T12:33:04;32.50;37.30
4910;DHT22;2470;49.868;8.660;2022-08-14T12:35:42;32.70;38.50
4910;DHT22;2470;49.868;8.660;2022-08-14T12:38:09;33.00;38.80
4910;DHT22;2470;49.868;8.660;2022-08-14T12:40:51;33.30;37.70
4910;DHT22;2470;49.868;8.660;2022-08-14T12:43:18;34.00;37.90
4910;DHT22;2470;49.868;8.660;2022-08-14T12:45:47;35.20;36.90
4910;DHT22;2470;49.868;8.660;2022-08-14T12:48:17;36.90;34.70
4910;DHT22;2470;49.868;8.660;2022-08-14T12:50:44;38.70;33.80
4910;DHT22;2470;49.868;8.660;2022-08-14T12:53:11;40.40;31.80
4910;DHT22;2470;49.868;8.660;2022-08-14T12:55:38;41.70;30.80
4910;DHT22;2470;49.868;8.660;2022-08-14T12:58:05;43.00;28.70
4910;DHT22;2470;49.868;8.660;2022-08-14T13:00:36;44.20;28.30
4910;DHT22;2470;49.868;8.660;2022-08-14T13:03:03;45.50;28.20
4910;DHT22;2470;49.868;8.660;2022-08-14T13:05:32;46.10;27.50
4910;DHT22;2470;49.868;8.660;2022-08-14T13:08:01;46.90;27.20
4910;DHT22;2470;49.868;8.660;2022-08-14T13:10:31;47.80;26.50
4910;DHT22;2470;49.868;8.660;2022-08-14T13:12:57;48.60;25.40
4910;DHT22;2470;49.868;8.660;2022-08-14T13:15:23;49.20;25.30
4910;DHT22;2470;49.868;8.660;2022-08-14T13:17:51;48.60;24.70
4910;DHT22;2470;49.868;8.660;2022-08-14T13:20:20;49.20;24.40
4910;DHT22;2470;49.868;8.660;2022-08-14T13:22:46;50.40;24.30
4910;DHT22;2470;49.868;8.660;2022-08-14T13:25:18;51.50;23.10
4910;DHT22;2470;49.868;8.660;2022-08-14T13:27:46;52.40;23.10
4910;DHT22;2470;49.868;8.660;2022-08-14T13:30:12;52.70;22.80
4910;DHT22;2470;49.868;8.660;2022-08-14T13:32:39;52.80;22.70
4910;DHT22;2470;49.868;8.660;2022-08-14T13:35:09;53.20;21.90
4910;DHT22;2470;49.868;8.660;2022-08-14T13:37:35;53.00;21.60
4910;DHT22;2470;49.868;8.660;2022-08-14T13:40:01;51.90;22.00
4910;DHT22;2470;49.868;8.660;2022-08-14T13:42:28;52.30;22.50
4910;DHT22;2470;49.868;8.660;2022-08-14T13:44:55;52.60;22.00
4910;DHT22;2470;49.868;8.660;2022-08-14T13:47:22;52.70;22.10
4910;DHT22;2470;49.868;8.660;2022-08-14T13:49:50;53.00;21.90
4910;DHT22;2470;49.868;8.660;2022-08-14T13:52:18;53.60;22.20
4910;DHT22;2470;49.868;8.660;2022-08-14T13:54:46;54.20;21.40
4910;DHT22;2470;49.868;8.660;2022-08-14T13:57:13;54.50;22.00
4910;DHT22;2470;49.868;8.660;2022-08-14T13:59:44;54.60;21.50
4910;DHT22;2470;49.868;8.660;2022-08-14T14:02:11;54.40;21.50
4910;DHT22;2470;49.868;8.660;2022-08-14T14:04:41;54.50;21.60
4910;DHT22;2470;49.868;8.660;2022-08-14T14:07:12;54.70;20.50
4910;DHT22;2470;49.868;8.660;2022-08-14T14:09:43;54.90;20.80
4910;DHT22;2470;49.868;8.660;2022-08-14T14:12:13;55.10;20.50
4910;DHT22;2470;49.868;8.660;2022-08-14T14:14:41;55.40;20.70
4910;DHT22;2470;49.868;8.660;2022-08-14T14:17:09;55.70;20.50
4910;DHT22;2470;49.868;8.660;2022-08-14T14:19:40;55.90;20.70
4910;DHT22;2470;49.868;8.660;2022-08-14T14:22:07;55.90;20.90
4910;DHT22;2470;49.868;8.660;2022-08-14T14:24:34;56.10;20.60
4910;DHT22;2470;49.868;8.660;2022-08-14T14:27:02;56.00;20.40
4910;DHT22;2470;49.868;8.660;2022-08-14T14:29:32;55.00;20.60
4910;DHT22;2470;49.868;8.660;2022-08-14T14:32:00;54.70;20.90
4910;DHT22;2470;49.868;8.660;2022-08-14T14:34:27;54.40;20.90
4910;DHT22;2470;49.868;8.660;2022-08-14T14:36:54;54.60;20.80
4910;DHT22;2470;49.868;8.660;2022-08-14T14:39:21;54.40;20.60
4910;DHT22;2470;49.868;8.660;2022-08-14T14:41:51;54.20;20.70
4910;DHT22;2470;49.868;8.660;2022-08-14T14:44:27;54.00;21.10
4910;DHT22;2470;49.868;8.660;2022-08-14T14:46:57;54.00;21.10
4910;DHT22;2470;49.868;8.660;2022-08-14T14:49:27;53.80;21.10
4910;DHT22;2470;49.868;8.660;2022-08-14T14:51:54;53.10;21.30
4910;DHT22;2470;49.868;8.660;2022-08-14T14:54:22;52.60;21.50
4910;DHT22;2470;49.868;8.660;2022-08-14T14:56:47;52.20;21.60
4910;DHT22;2470;49.868;8.660;2022-08-14T14:59:13;51.90;21.70
4910;DHT22;2470;49.868;8.660;2022-08-14T15:01:39;51.60;22.00
4910;DHT22;2470;49.868;8.660;2022-08-14T15:04:08;51.60;21.90
4910;DHT22;2470;49.868;8.660;2022-08-14T15:06:34;51.00;21.90
4910;DHT22;2470;49.868;8.660;2022-08-14T15:09:00;49.00;22.40
4910;DHT22;2470;49.868;8.660;2022-08-14T15:11:27;46.70;23.30
4910;DHT22;2470;49.868;8.660;2022-08-14T15:13:53;44.40;24.50
4910;DHT22;2470;49.868;8.660;2022-08-14T15:16:18;42.60;25.50
4910;DHT22;2470;49.868;8.660;2022-08-14T15:18:44;41.50;26.60
4910;DHT22;2470;49.868;8.660;2022-08-14T15:21:11;41.10;27.10
4910;DHT22;2470;49.868;8.660;2022-08-14T15:23:36;42.00;26.90
4910;DHT22;2470;49.868;8.660;2022-08-14T15:26:02;41.90;26.70
4910;DHT22;2470;49.868;8.660;2022-08-14T15:28:30;41.50;27.00
4910;DHT22;2470;49.868;8.660;2022-08-14T15:30:57;40.90;27.30
4910;DHT22;2470;49.868;8.660;2022-08-14T15:33:23;40.20;28.00
4910;DHT22;2470;49.868;8.660;2022-08-14T15:36:07;39.50;28.40
4910;DHT22;2470;49.868;8.660;2022-08-14T15:38:34;38.80;29.00
4910;DHT22;2470;49.868;8.660;2022-08-14T15:41:00;38.30;29.70
4910;DHT22;2470;49.868;8.660;2022-08-14T15:43:26;37.70;30.00
4910;DHT22;2470;49.868;8.660;2022-08-14T15:45:53;37.30;30.40
4910;DHT22;2470;49.868;8.660;2022-08-14T15:48:18;36.80;30.80
4910;DHT22;2470;49.868;8.660;2022-08-14T15:50:44;36.60;30.70
4910;DHT22;2470;49.868;8.660;2022-08-14T15:53:10;36.40;30.80
4910;DHT22;2470;49.868;8.660;2022-08-14T15:55:36;36.20;30.70
4910;DHT22;2470;49.868;8.660;2022-08-14T15:58:02;35.90;30.80
4910;DHT22;2470;49.868;8.660;2022-08-14T16:00:29;35.60;31.30
4910;DHT22;2470;49.868;8.660;2022-08-14T16:03:13;35.40;31.70
4910;DHT22;2470;49.868;8.660;2022-08-14T16:05:40;35.10;32.10
4910;DHT22;2470;49.868;8.660;2022-08-14T16:08:08;34.90;32.20
4910;DHT22;2470;49.868;8.660;2022-08-14T16:10:34;34.80;32.20
4910;DHT22;2470;49.868;8.660;2022-08-14T16:13:00;34.70;32.30
4910;DHT22;2470;49.868;8.660;2022-08-14T16:15:25;34.60;32.70
4910;DHT22;2470;49.868;8.660;2022-08-14T16:17:51;34.50;33.10
4910;DHT22;2470;49.868;8.660;2022-08-14T16:20:17;34.30;33.70
4910;DHT22;2470;49.868;8.660;2022-08-14T16:22:43;34.20;33.70
4910;DHT22;2470;49.868;8.660;2022-08-14T16:25:09;34.10;33.80
4910;DHT22;2470;49.868;8.660;2022-08-14T16:27:35;34.00;34.00
4910;DHT22;2470;49.868;8.660;2022-08-14T16:30:06;33.90;34.00
4910;DHT22;2470;49.868;8.660;2022-08-14T16:32:34;33.80;34.30
4910;DHT22;2470;49.868;8.660;2022-08-14T16:34:59;33.70;34.60
4910;DHT22;2470;49.868;8.660;2022-08-14T16:37:25;33.70;34.90